You are listening to:
KPOU Ground/Tower - Poughkeepsie, New York, United States

KPOU 051853Z 27011KT 10SM SCT065 29/15 A2999 RMK AO2 SLP153 T02940150

If stream doesn't start automatically press the play button
If stream stops then reload player then press play